sensor_id;sensor_type;location;lat;lon;timestamp;noise_LAeq;noise_LA_min;noise_LA_max;noise_LA01;noise_LA95
48148;Laerm;29352;48.708;9.290;2023-05-07T00:01:04;48.91;15.00;61.91;;
48148;Laerm;29352;48.708;9.290;2023-05-07T00:03:32;46.08;15.00;62.74;;
48148;Laerm;29352;48.708;9.290;2023-05-07T00:05:58;44.80;15.00;59.77;;
48148;Laerm;29352;48.708;9.290;2023-05-07T00:08:23;42.38;15.00;61.74;;
48148;Laerm;29352;48.708;9.290;2023-05-07T00:10:49;41.24;15.00;51.61;;
48148;Laerm;29352;48.708;9.290;2023-05-07T00:13:15;43.13;15.00;56.41;;
48148;Laerm;29352;48.708;9.290;2023-05-07T00:15:40;45.05;15.00;57.24;;
48148;Laerm;29352;48.708;9.290;2023-05-07T00:18:06;43.90;15.00;57.18;;
48148;Laerm;29352;48.708;9.290;2023-05-07T00:20:31;48.54;15.00;65.53;;
48148;Laerm;29352;48.708;9.290;2023-05-07T00:22:57;45.29;15.00;53.97;;
48148;Laerm;29352;48.708;9.290;2023-05-07T00:25:22;46.48;15.00;68.00;;
48148;Laerm;29352;48.708;9.290;2023-05-07T00:27:48;42.64;15.00;55.01;;
48148;Laerm;29352;48.708;9.290;2023-05-07T00:30:14;44.52;15.00;59.10;;
48148;Laerm;29352;48.708;9.290;2023-05-07T00:32:39;45.50;15.00;57.91;;
48148;Laerm;29352;48.708;9.290;2023-05-07T00:35:06;60.14;15.00;96.21;;
48148;Laerm;29352;48.708;9.290;2023-05-07T00:37:32;45.04;15.00;60.64;;
48148;Laerm;29352;48.708;9.290;2023-05-07T00:39:58;41.54;15.00;62.53;;
48148;Laerm;29352;48.708;9.290;2023-05-07T00:42:24;45.05;15.00;58.45;;
48148;Laerm;29352;48.708;9.290;2023-05-07T00:44:49;47.80;15.00;65.45;;
48148;Laerm;29352;48.708;9.290;2023-05-07T00:47:16;46.34;15.00;63.63;;
48148;Laerm;29352;48.708;9.290;2023-05-07T00:49:44;43.45;15.00;55.80;;
48148;Laerm;29352;48.708;9.290;2023-05-07T00:52:15;45.08;15.00;60.73;;
48148;Laerm;29352;48.708;9.290;2023-05-07T00:54:43;43.98;15.00;51.82;;
48148;Laerm;29352;48.708;9.290;2023-05-07T00:57:11;42.79;15.00;50.89;;
48148;Laerm;29352;48.708;9.290;2023-05-07T00:59:37;39.34;15.00;53.81;;
48148;Laerm;29352;48.708;9.290;2023-05-07T01:02:03;44.64;15.00;58.80;;
48148;Laerm;29352;48.708;9.290;2023-05-07T01:04:29;42.69;15.00;54.87;;
48148;Laerm;29352;48.708;9.290;2023-05-07T01:06:58;46.24;15.00;61.14;;
48148;Laerm;29352;48.708;9.290;2023-05-07T01:09:25;43.91;15.00;57.28;;
48148;Laerm;29352;48.708;9.290;2023-05-07T01:11:53;45.83;15.00;58.39;;
48148;Laerm;29352;48.708;9.290;2023-05-07T01:14:20;44.23;15.00;56.15;;
48148;Laerm;29352;48.708;9.290;2023-05-07T01:16:47;45.58;15.00;57.18;;
48148;Laerm;29352;48.708;9.290;2023-05-07T01:19:18;45.84;15.00;58.99;;
48148;Laerm;29352;48.708;9.290;2023-05-07T01:21:48;40.70;15.00;52.93;;
48148;Laerm;29352;48.708;9.290;2023-05-07T01:24:15;40.70;15.00;49.21;;
48148;Laerm;29352;48.708;9.290;2023-05-07T01:26:43;41.00;15.00;49.46;;
48148;Laerm;29352;48.708;9.290;2023-05-07T01:29:09;40.05;15.00;48.95;;
48148;Laerm;29352;48.708;9.290;2023-05-07T01:31:37;43.68;15.00;51.22;;
48148;Laerm;29352;48.708;9.290;2023-05-07T01:34:07;43.55;15.00;50.80;;
48148;Laerm;29352;48.708;9.290;2023-05-07T01:36:34;42.98;15.00;50.43;;
48148;Laerm;29352;48.708;9.290;2023-05-07T01:39:02;42.57;15.00;51.06;;
48148;Laerm;29352;48.708;9.290;2023-05-07T01:41:28;42.88;15.00;49.81;;
48148;Laerm;29352;48.708;9.290;2023-05-07T01:43:56;43.71;15.00;59.77;;
48148;Laerm;29352;48.708;9.290;2023-05-07T01:46:26;44.92;15.00;55.66;;
48148;Laerm;29352;48.708;9.290;2023-05-07T01:48:51;44.17;15.00;57.02;;
48148;Laerm;29352;48.708;9.290;2023-05-07T01:51:17;41.11;15.00;50.62;;
48148;Laerm;29352;48.708;9.290;2023-05-07T01:53:42;41.34;15.00;50.98;;
48148;Laerm;29352;48.708;9.290;2023-05-07T01:56:09;41.46;15.00;52.16;;
48148;Laerm;29352;48.708;9.290;2023-05-07T01:58:34;44.62;15.00;59.10;;
48148;Laerm;29352;48.708;9.290;2023-05-07T02:01:00;42.14;15.00;51.30;;
48148;Laerm;29352;48.708;9.290;2023-05-07T02:03:25;41.52;15.00;53.04;;
48148;Laerm;29352;48.708;9.290;2023-05-07T02:05:51;42.19;15.00;49.92;;
48148;Laerm;29352;48.708;9.290;2023-05-07T02:08:16;43.12;15.00;50.62;;
48148;Laerm;29352;48.708;9.290;2023-05-07T02:10:41;43.98;15.00;52.65;;
48148;Laerm;29352;48.708;9.290;2023-05-07T02:13:07;45.87;15.00;56.52;;
48148;Laerm;29352;48.708;9.290;2023-05-07T02:15:32;44.76;15.00;56.91;;
48148;Laerm;29352;48.708;9.290;2023-05-07T02:18:05;40.59;15.00;54.15;;
48148;Laerm;29352;48.708;9.290;2023-05-07T02:20:31;47.03;15.00;59.98;;
48148;Laerm;29352;48.708;9.290;2023-05-07T02:22:57;43.06;15.00;52.03;;
48148;Laerm;29352;48.708;9.290;2023-05-07T02:25:23;40.28;15.00;51.53;;
48148;Laerm;29352;48.708;9.290;2023-05-07T02:27:48;46.24;15.00;54.69;;
48148;Laerm;29352;48.708;9.290;2023-05-07T02:30:14;49.87;38.67;57.44;;
48148;Laerm;29352;48.708;9.290;2023-05-07T02:32:40;47.49;15.00;55.23;;
48148;Laerm;29352;48.708;9.290;2023-05-07T02:35:06;46.75;15.00;54.76;;
48148;Laerm;29352;48.708;9.290;2023-05-07T02:37:32;46.46;15.00;53.72;;
48148;Laerm;29352;48.708;9.290;2023-05-07T02:39:57;48.76;15.00;57.68;;
48148;Laerm;29352;48.708;9.290;2023-05-07T02:42:22;48.72;15.00;68.28;;
48148;Laerm;29352;48.708;9.290;2023-05-07T02:44:48;46.87;15.00;54.51;;
48148;Laerm;29352;48.708;9.290;2023-05-07T02:47:15;45.27;15.00;52.03;;
48148;Laerm;29352;48.708;9.290;2023-05-07T02:49:41;45.74;15.00;55.33;;
48148;Laerm;29352;48.708;9.290;2023-05-07T02:52:06;45.89;15.00;54.07;;
48148;Laerm;29352;48.708;9.290;2023-05-07T02:54:32;50.42;15.00;58.15;;
48148;Laerm;29352;48.708;9.290;2023-05-07T02:56:57;42.78;15.00;54.51;;
48148;Laerm;29352;48.708;9.290;2023-05-07T02:59:24;38.52;15.00;48.52;;
48148;Laerm;29352;48.708;9.290;2023-05-07T03:01:51;30.86;15.00;46.45;;
48148;Laerm;29352;48.708;9.290;2023-05-07T03:04:17;50.21;15.00;53.86;;
48148;Laerm;29352;48.708;9.290;2023-05-07T03:06:43;50.03;15.00;57.23;;
48148;Laerm;29352;48.708;9.290;2023-05-07T03:09:08;49.58;15.00;60.90;;
48148;Laerm;29352;48.708;9.290;2023-05-07T03:11:34;49.78;15.00;58.58;;
48148;Laerm;29352;48.708;9.290;2023-05-07T03:14:01;45.84;15.00;58.31;;
48148;Laerm;29352;48.708;9.290;2023-05-07T03:16:27;42.60;15.00;50.43;;
48148;Laerm;29352;48.708;9.290;2023-05-07T03:18:52;39.69;15.00;49.34;;
48148;Laerm;29352;48.708;9.290;2023-05-07T03:21:18;43.34;15.00;57.72;;
48148;Laerm;29352;48.708;9.290;2023-05-07T03:23:43;47.12;15.00;57.88;;
48148;Laerm;29352;48.708;9.290;2023-05-07T03:26:09;47.77;15.00;57.36;;
48148;Laerm;29352;48.708;9.290;2023-05-07T03:28:34;47.93;15.00;55.57;;
48148;Laerm;29352;48.708;9.290;2023-05-07T03:31:00;48.59;15.00;56.15;;
48148;Laerm;29352;48.708;9.290;2023-05-07T03:33:25;48.52;15.00;60.41;;
48148;Laerm;29352;48.708;9.290;2023-05-07T03:35:52;50.51;15.00;60.58;;
48148;Laerm;29352;48.708;9.290;2023-05-07T03:38:18;48.44;15.00;57.48;;
48148;Laerm;29352;48.708;9.290;2023-05-07T03:40:43;48.40;15.00;67.92;;
48148;Laerm;29352;48.708;9.290;2023-05-07T03:43:09;52.10;15.00;61.68;;
48148;Laerm;29352;48.708;9.290;2023-05-07T03:45:34;52.22;15.00;61.33;;
48148;Laerm;29352;48.708;9.290;2023-05-07T03:48:00;52.12;15.00;65.11;;
48148;Laerm;29352;48.708;9.290;2023-05-07T03:50:25;51.82;15.00;56.79;;
48148;Laerm;29352;48.708;9.290;2023-05-07T03:52:51;52.96;15.00;61.33;;
48148;Laerm;29352;48.708;9.290;2023-05-07T03:55:17;51.00;15.00;60.48;;
48148;Laerm;29352;48.708;9.290;2023-05-07T03:57:43;53.17;15.00;62.73;;
48148;Laerm;29352;48.708;9.290;2023-05-07T04:00:09;53.36;45.36;64.42;;
48148;Laerm;29352;48.708;9.290;2023-05-07T04:02:35;53.18;43.44;67.04;;
48148;Laerm;29352;48.708;9.290;2023-05-07T04:05:00;52.84;38.67;67.14;;
48148;Laerm;29352;48.708;9.290;2023-05-07T04:07:26;52.90;43.44;63.59;;
48148;Laerm;29352;48.708;9.290;2023-05-07T04:09:51;52.74;43.44;62.19;;
48148;Laerm;29352;48.708;9.290;2023-05-07T04:12:17;52.89;45.04;58.32;;
48148;Laerm;29352;48.708;9.290;2023-05-07T04:14:42;52.24;15.00;57.83;;
48148;Laerm;29352;48.708;9.290;2023-05-07T04:17:07;52.32;33.90;58.99;;
48148;Laerm;29352;48.708;9.290;2023-05-07T04:19:35;49.20;15.00;54.51;;
48148;Laerm;29352;48.708;9.290;2023-05-07T04:22:00;48.87;15.00;56.38;;
48148;Laerm;29352;48.708;9.290;2023-05-07T04:24:26;49.72;15.00;56.66;;
48148;Laerm;29352;48.708;9.290;2023-05-07T04:26:52;48.02;15.00;57.61;;
48148;Laerm;29352;48.708;9.290;2023-05-07T04:29:18;49.87;15.00;60.78;;
48148;Laerm;29352;48.708;9.290;2023-05-07T04:31:44;51.51;15.00;65.69;;
48148;Laerm;29352;48.708;9.290;2023-05-07T04:34:11;51.39;15.00;65.73;;
48148;Laerm;29352;48.708;9.290;2023-05-07T04:36:38;51.15;15.00;68.57;;
48148;Laerm;29352;48.708;9.290;2023-05-07T04:39:04;43.13;15.00;62.79;;
48148;Laerm;29352;48.708;9.290;2023-05-07T04:41:29;46.10;15.00;56.89;;
48148;Laerm;29352;48.708;9.290;2023-05-07T04:43:55;45.28;15.00;63.19;;
48148;Laerm;29352;48.708;9.290;2023-05-07T04:46:22;47.65;15.00;63.67;;
48148;Laerm;29352;48.708;9.290;2023-05-07T04:48:47;45.33;15.00;57.50;;
48148;Laerm;29352;48.708;9.290;2023-05-07T04:51:13;44.03;15.00;55.17;;
48148;Laerm;29352;48.708;9.290;2023-05-07T04:53:38;45.68;15.00;60.01;;
48148;Laerm;29352;48.708;9.290;2023-05-07T04:56:04;49.13;15.00;64.38;;
48148;Laerm;29352;48.708;9.290;2023-05-07T04:58:29;44.20;15.00;52.76;;
48148;Laerm;29352;48.708;9.290;2023-05-07T05:00:57;40.39;15.00;51.14;;
48148;Laerm;29352;48.708;9.290;2023-05-07T05:05:52;46.71;15.00;61.79;;
48148;Laerm;29352;48.708;9.290;2023-05-07T05:08:18;44.75;15.00;56.71;;
48148;Laerm;29352;48.708;9.290;2023-05-07T05:10:44;43.18;15.00;52.47;;
48148;Laerm;29352;48.708;9.290;2023-05-07T05:13:10;43.90;15.00;50.43;;
48148;Laerm;29352;48.708;9.290;2023-05-07T05:15:38;42.67;15.00;52.41;;
48148;Laerm;29352;48.708;9.290;2023-05-07T05:18:04;41.14;15.00;50.33;;
48148;Laerm;29352;48.708;9.290;2023-05-07T05:20:30;43.52;15.00;53.09;;
48148;Laerm;29352;48.708;9.290;2023-05-07T05:22:55;46.19;15.00;66.16;;
48148;Laerm;29352;48.708;9.290;2023-05-07T05:25:21;47.54;15.00;63.64;;
48148;Laerm;29352;48.708;9.290;2023-05-07T05:27:46;50.53;15.00;64.29;;
48148;Laerm;29352;48.708;9.290;2023-05-07T05:30:12;43.75;15.00;53.90;;
48148;Laerm;29352;48.708;9.290;2023-05-07T05:32:38;44.09;15.00;52.47;;
48148;Laerm;29352;48.708;9.290;2023-05-07T05:35:04;55.08;15.00;90.19;;
48148;Laerm;29352;48.708;9.290;2023-05-07T05:37:29;50.24;15.00;56.73;;
48148;Laerm;29352;48.708;9.290;2023-05-07T05:39:56;52.61;15.00;57.91;;
48148;Laerm;29352;48.708;9.290;2023-05-07T05:42:23;49.30;15.00;54.94;;
48148;Laerm;29352;48.708;9.290;2023-05-07T05:44:49;44.70;15.00;64.01;;
48148;Laerm;29352;48.708;9.290;2023-05-07T05:47:14;50.41;15.00;57.88;;
48148;Laerm;29352;48.708;9.290;2023-05-07T05:49:40;50.11;15.00;59.97;;
48148;Laerm;29352;48.708;9.290;2023-05-07T05:52:05;52.54;15.00;60.59;;
48148;Laerm;29352;48.708;9.290;2023-05-07T05:54:30;53.77;15.00;59.75;;
48148;Laerm;29352;48.708;9.290;2023-05-07T05:56:56;52.45;44.31;60.17;;
48148;Laerm;29352;48.708;9.290;2023-05-07T05:59:22;49.91;33.90;60.66;;
48148;Laerm;29352;48.708;9.290;2023-05-07T06:01:48;50.03;36.91;58.60;;
48148;Laerm;29352;48.708;9.290;2023-05-07T06:04:13;51.42;42.35;59.58;;
48148;Laerm;29352;48.708;9.290;2023-05-07T06:06:39;52.86;43.44;57.79;;
48148;Laerm;29352;48.708;9.290;2023-05-07T06:09:04;51.63;40.89;59.45;;
48148;Laerm;29352;48.708;9.290;2023-05-07T06:11:31;51.27;40.89;56.76;;
48148;Laerm;29352;48.708;9.290;2023-05-07T06:13:57;51.80;43.90;57.28;;
48148;Laerm;29352;48.708;9.290;2023-05-07T06:16:24;51.38;43.90;56.93;;
48148;Laerm;29352;48.708;9.290;2023-05-07T06:18:50;51.25;45.36;56.91;;
48148;Laerm;29352;48.708;9.290;2023-05-07T06:21:15;51.80;45.04;56.18;;
48148;Laerm;29352;48.708;9.290;2023-05-07T06:23:41;52.34;44.69;59.10;;
48148;Laerm;29352;48.708;9.290;2023-05-07T06:26:07;50.24;15.00;55.04;;
48148;Laerm;29352;48.708;9.290;2023-05-07T06:28:32;48.90;36.91;54.39;;
48148;Laerm;29352;48.708;9.290;2023-05-07T06:31:19;49.96;40.89;54.94;;
48148;Laerm;29352;48.708;9.290;2023-05-07T06:33:49;50.07;42.35;55.54;;
48148;Laerm;29352;48.708;9.290;2023-05-07T06:36:15;51.25;40.89;57.79;;
48148;Laerm;29352;48.708;9.290;2023-05-07T06:38:41;52.96;47.88;57.60;;
48148;Laerm;29352;48.708;9.290;2023-05-07T06:41:07;53.16;46.69;55.80;;
48148;Laerm;29352;48.708;9.290;2023-05-07T06:43:33;53.48;48.81;56.35;;
48148;Laerm;29352;48.708;9.290;2023-05-07T06:45:58;53.62;50.80;55.11;;
48148;Laerm;29352;48.708;9.290;2023-05-07T06:48:23;52.90;49.46;55.36;;
48148;Laerm;29352;48.708;9.290;2023-05-07T06:50:50;52.52;43.90;56.40;;
48148;Laerm;29352;48.708;9.290;2023-05-07T06:53:15;52.98;44.69;56.18;;
48148;Laerm;29352;48.708;9.290;2023-05-07T06:55:41;53.13;49.21;55.60;;
48148;Laerm;29352;48.708;9.290;2023-05-07T06:58:07;53.36;49.34;56.89;;
48148;Laerm;29352;48.708;9.290;2023-05-07T07:00:32;53.69;50.71;58.31;;
48148;Laerm;29352;48.708;9.290;2023-05-07T07:02:58;53.63;50.33;57.55;;
48148;Laerm;29352;48.708;9.290;2023-05-07T07:05:24;53.71;48.52;55.39;;
48148;Laerm;29352;48.708;9.290;2023-05-07T07:07:50;53.53;50.08;55.83;;
48148;Laerm;29352;48.708;9.290;2023-05-07T07:10:22;53.63;51.46;54.73;;
48148;Laerm;29352;48.708;9.290;2023-05-07T07:12:48;53.49;49.81;54.73;;
48148;Laerm;29352;48.708;9.290;2023-05-07T07:15:14;53.17;46.45;56.18;;
48148;Laerm;29352;48.708;9.290;2023-05-07T07:17:39;53.29;49.81;54.58;;
48148;Laerm;29352;48.708;9.290;2023-05-07T07:20:06;53.50;50.98;57.06;;
48148;Laerm;29352;48.708;9.290;2023-05-07T07:22:31;53.56;52.22;54.54;;
48148;Laerm;29352;48.708;9.290;2023-05-07T07:24:57;53.55;51.61;54.69;;
48148;Laerm;29352;48.708;9.290;2023-05-07T07:27:22;53.07;49.46;59.10;;
48148;Laerm;29352;48.708;9.290;2023-05-07T07:29:48;53.47;49.70;60.98;;
48148;Laerm;29352;48.708;9.290;2023-05-07T07:32:14;53.31;48.52;54.69;;
48148;Laerm;29352;48.708;9.290;2023-05-07T07:34:39;53.39;51.03;54.62;;
48148;Laerm;29352;48.708;9.290;2023-05-07T07:37:05;53.38;52.09;54.51;;
48148;Laerm;29352;48.708;9.290;2023-05-07T07:39:34;53.33;51.96;58.92;;
48148;Laerm;29352;48.708;9.290;2023-05-07T07:42:01;53.29;52.16;54.39;;
48148;Laerm;29352;48.708;9.290;2023-05-07T07:44:28;53.26;51.75;54.39;;
48148;Laerm;29352;48.708;9.290;2023-05-07T07:46:53;53.27;52.00;54.27;;
48148;Laerm;29352;48.708;9.290;2023-05-07T07:49:19;53.26;52.03;54.27;;
48148;Laerm;29352;48.708;9.290;2023-05-07T07:51:45;53.23;51.96;55.36;;
48148;Laerm;29352;48.708;9.290;2023-05-07T07:54:11;53.22;51.75;55.36;;
48148;Laerm;29352;48.708;9.290;2023-05-07T07:56:36;53.22;52.03;54.58;;
48148;Laerm;29352;48.708;9.290;2023-05-07T07:59:02;53.19;51.89;54.35;;
48148;Laerm;29352;48.708;9.290;2023-05-07T08:01:30;53.19;52.09;55.63;;
48148;Laerm;29352;48.708;9.290;2023-05-07T08:03:56;53.21;51.96;54.39;;
48148;Laerm;29352;48.708;9.290;2023-05-07T08:06:24;53.18;52.03;54.39;;
48148;Laerm;29352;48.708;9.290;2023-05-07T08:08:51;53.22;51.61;54.23;;
48148;Laerm;29352;48.708;9.290;2023-05-07T08:11:16;53.21;52.03;54.31;;
48148;Laerm;29352;48.708;9.290;2023-05-07T08:13:42;53.17;52.03;54.35;;
48148;Laerm;29352;48.708;9.290;2023-05-07T08:16:08;53.17;51.89;54.19;;
48148;Laerm;29352;48.708;9.290;2023-05-07T08:18:34;53.10;51.46;54.19;;
48148;Laerm;29352;48.708;9.290;2023-05-07T08:21:01;53.03;51.61;54.15;;
48148;Laerm;29352;48.708;9.290;2023-05-07T08:23:26;52.96;51.61;54.11;;
48148;Laerm;29352;48.708;9.290;2023-05-07T08:25:51;52.90;51.46;53.94;;
48148;Laerm;29352;48.708;9.290;2023-05-07T08:28:17;52.90;51.46;54.03;;
48148;Laerm;29352;48.708;9.290;2023-05-07T08:30:42;52.95;51.75;53.99;;
48148;Laerm;29352;48.708;9.290;2023-05-07T08:33:11;52.92;51.53;53.99;;
48148;Laerm;29352;48.708;9.290;2023-05-07T08:35:36;52.91;51.61;54.07;;
48148;Laerm;29352;48.708;9.290;2023-05-07T08:38:01;52.89;51.46;53.94;;
48148;Laerm;29352;48.708;9.290;2023-05-07T08:40:28;52.83;51.22;54.19;;
48148;Laerm;29352;48.708;9.290;2023-05-07T08:42:56;52.86;51.61;53.86;;
48148;Laerm;29352;48.708;9.290;2023-05-07T08:45:23;52.82;51.22;53.94;;
48148;Laerm;29352;48.708;9.290;2023-05-07T08:47:59;52.81;51.30;54.19;;
48148;Laerm;29352;48.708;9.290;2023-05-07T08:50:25;52.81;51.14;53.94;;
48148;Laerm;29352;48.708;9.290;2023-05-07T08:52:50;52.78;51.30;53.94;;
48148;Laerm;29352;48.708;9.290;2023-05-07T08:55:17;52.79;51.46;53.90;;
48148;Laerm;29352;48.708;9.290;2023-05-07T08:57:42;52.80;51.30;54.03;;
48148;Laerm;29352;48.708;9.290;2023-05-07T09:00:09;52.80;51.46;55.80;;
48148;Laerm;29352;48.708;9.290;2023-05-07T09:02:36;52.76;51.61;54.15;;
48148;Laerm;29352;48.708;9.290;2023-05-07T09:05:02;52.74;51.46;53.86;;
48148;Laerm;29352;48.708;9.290;2023-05-07T09:07:28;52.73;51.46;53.81;;
48148;Laerm;29352;48.708;9.290;2023-05-07T09:09:53;52.74;51.30;53.90;;
48148;Laerm;29352;48.708;9.290;2023-05-07T09:12:23;52.70;51.38;53.81;;
48148;Laerm;29352;48.708;9.290;2023-05-07T09:14:49;52.73;51.30;53.77;;
48148;Laerm;29352;48.708;9.290;2023-05-07T09:17:16;52.72;51.46;53.99;;
48148;Laerm;29352;48.708;9.290;2023-05-07T09:19:44;52.61;50.89;53.72;;
48148;Laerm;29352;48.708;9.290;2023-05-07T09:22:10;52.58;51.14;53.77;;
48148;Laerm;29352;48.708;9.290;2023-05-07T09:24:37;52.59;51.22;53.72;;
48148;Laerm;29352;48.708;9.290;2023-05-07T09:27:07;52.58;50.89;53.81;;
48148;Laerm;29352;48.708;9.290;2023-05-07T09:29:34;52.55;50.98;53.63;;
48148;Laerm;29352;48.708;9.290;2023-05-07T09:32:05;52.52;51.14;53.58;;
48148;Laerm;29352;48.708;9.290;2023-05-07T09:34:31;52.51;51.06;53.58;;
48148;Laerm;29352;48.708;9.290;2023-05-07T09:37:00;52.50;50.98;53.63;;
48148;Laerm;29352;48.708;9.290;2023-05-07T09:39:26;52.50;50.98;53.54;;
48148;Laerm;29352;48.708;9.290;2023-05-07T09:42:04;52.53;50.89;53.63;;
48148;Laerm;29352;48.708;9.290;2023-05-07T09:44:32;52.51;50.80;53.86;;
48148;Laerm;29352;48.708;9.290;2023-05-07T09:47:00;52.52;50.98;53.68;;
48148;Laerm;29352;48.708;9.290;2023-05-07T09:49:30;52.51;51.22;53.81;;
48148;Laerm;29352;48.708;9.290;2023-05-07T09:52:01;52.49;51.11;53.68;;
48148;Laerm;29352;48.708;9.290;2023-05-07T09:54:28;52.49;50.98;53.58;;
48148;Laerm;29352;48.708;9.290;2023-05-07T09:56:58;52.55;50.98;53.68;;
48148;Laerm;29352;48.708;9.290;2023-05-07T09:59:25;52.55;50.89;53.72;;
48148;Laerm;29352;48.708;9.290;2023-05-07T10:01:57;52.52;50.89;53.68;;
48148;Laerm;29352;48.708;9.290;2023-05-07T10:04:25;52.51;51.03;55.39;;
48148;Laerm;29352;48.708;9.290;2023-05-07T10:06:52;52.49;51.22;54.90;;
48148;Laerm;29352;48.708;9.290;2023-05-07T10:09:20;52.50;50.98;54.73;;
48148;Laerm;29352;48.708;9.290;2023-05-07T10:11:48;52.48;51.14;53.63;;
48148;Laerm;29352;48.708;9.290;2023-05-07T10:14:14;52.46;51.06;53.72;;
48148;Laerm;29352;48.708;9.290;2023-05-07T10:16:40;52.45;50.98;53.72;;
48148;Laerm;29352;48.708;9.290;2023-05-07T10:19:08;52.43;50.71;53.63;;
48148;Laerm;29352;48.708;9.290;2023-05-07T10:21:44;52.46;50.53;53.68;;
48148;Laerm;29352;48.708;9.290;2023-05-07T10:24:26;52.46;51.14;53.63;;
48148;Laerm;29352;48.708;9.290;2023-05-07T10:26:56;52.41;50.80;53.90;;
48148;Laerm;29352;48.708;9.290;2023-05-07T10:34:45;52.44;50.71;53.77;;
48148;Laerm;29352;48.708;9.290;2023-05-07T10:37:13;52.37;50.80;53.63;;
48148;Laerm;29352;48.708;9.290;2023-05-07T10:39:40;52.36;50.80;53.58;;
48148;Laerm;29352;48.708;9.290;2023-05-07T10:42:11;52.31;50.80;53.44;;
48148;Laerm;29352;48.708;9.290;2023-05-07T10:44:38;52.32;50.71;53.39;;
48148;Laerm;29352;48.708;9.290;2023-05-07T10:47:13;52.29;50.80;53.39;;
48148;Laerm;29352;48.708;9.290;2023-05-07T10:52:19;52.27;50.98;53.58;;
48148;Laerm;29352;48.708;9.290;2023-05-07T10:54:46;52.21;50.80;53.44;;
48148;Laerm;29352;48.708;9.290;2023-05-07T10:57:36;52.17;50.53;53.44;;
48148;Laerm;29352;48.708;9.290;2023-05-07T11:05:28;52.16;50.62;53.58;;
48148;Laerm;29352;48.708;9.290;2023-05-07T11:08:02;52.14;50.43;53.49;;
48148;Laerm;29352;48.708;9.290;2023-05-07T11:13:17;52.12;50.62;53.34;;
48148;Laerm;29352;48.708;9.290;2023-05-07T11:15:48;52.09;50.43;53.34;;
48148;Laerm;29352;48.708;9.290;2023-05-07T11:18:16;52.07;50.33;53.24;;
48148;Laerm;29352;48.708;9.290;2023-05-07T11:26:10;52.04;50.53;53.44;;
48148;Laerm;29352;48.708;9.290;2023-05-07T11:28:39;51.97;50.23;53.39;;
48148;Laerm;29352;48.708;9.290;2023-05-07T11:31:05;51.93;50.23;53.24;;
48148;Laerm;29352;48.708;9.290;2023-05-07T11:33:32;51.94;49.70;53.49;;
48148;Laerm;29352;48.708;9.290;2023-05-07T11:36:00;52.06;50.43;53.34;;
48148;Laerm;29352;48.708;9.290;2023-05-07T11:38:26;52.05;50.53;53.34;;
48148;Laerm;29352;48.708;9.290;2023-05-07T11:40:57;52.06;50.33;53.49;;
48148;Laerm;29352;48.708;9.290;2023-05-07T11:43:24;52.03;50.53;53.19;;
48148;Laerm;29352;48.708;9.290;2023-05-07T11:45:50;52.00;50.23;53.29;;
48148;Laerm;29352;48.708;9.290;2023-05-07T11:48:16;52.10;50.13;53.42;;
48148;Laerm;29352;48.708;9.290;2023-05-07T11:50:59;52.17;50.23;53.72;;
48148;Laerm;29352;48.708;9.290;2023-05-07T11:53:27;52.21;50.45;53.58;;
48148;Laerm;29352;48.708;9.290;2023-05-07T11:55:55;52.17;50.43;53.49;;
48148;Laerm;29352;48.708;9.290;2023-05-07T11:58:23;52.14;50.23;53.49;;
48148;Laerm;29352;48.708;9.290;2023-05-07T12:00:51;52.13;50.53;53.39;;
48148;Laerm;29352;48.708;9.290;2023-05-07T12:03:17;52.14;50.43;53.58;;
48148;Laerm;29352;48.708;9.290;2023-05-07T12:05:47;52.10;50.43;53.44;;
48148;Laerm;29352;48.708;9.290;2023-05-07T12:08:21;52.16;50.62;53.44;;
48148;Laerm;29352;48.708;9.290;2023-05-07T12:10:50;52.13;50.43;53.34;;
48148;Laerm;29352;48.708;9.290;2023-05-07T12:13:19;52.20;50.43;53.63;;
48148;Laerm;29352;48.708;9.290;2023-05-07T12:15:45;52.17;49.81;53.49;;
48148;Laerm;29352;48.708;9.290;2023-05-07T12:18:12;52.15;49.70;53.44;;
48148;Laerm;29352;48.708;9.290;2023-05-07T12:20:39;52.09;50.53;53.34;;
48148;Laerm;29352;48.708;9.290;2023-05-07T12:23:05;52.10;49.08;53.44;;
48148;Laerm;29352;48.708;9.290;2023-05-07T12:25:42;52.15;49.46;53.42;;
48148;Laerm;29352;48.708;9.290;2023-05-07T12:28:16;52.17;50.71;53.39;;
48148;Laerm;29352;48.708;9.290;2023-05-07T12:30:48;52.20;50.62;53.24;;
48148;Laerm;29352;48.708;9.290;2023-05-07T12:33:24;52.32;50.89;53.68;;
48148;Laerm;29352;48.708;9.290;2023-05-07T12:35:50;52.00;44.69;53.44;;
48148;Laerm;29352;48.708;9.290;2023-05-07T12:38:17;50.64;44.69;53.14;;
48148;Laerm;29352;48.708;9.290;2023-05-07T12:40:46;51.50;45.94;53.58;;
48148;Laerm;29352;48.708;9.290;2023-05-07T12:43:26;50.62;42.93;53.44;;
48148;Laerm;29352;48.708;9.290;2023-05-07T12:45:55;51.17;43.44;53.04;;
48148;Laerm;29352;48.708;9.290;2023-05-07T12:48:23;51.95;45.36;53.68;;
48148;Laerm;29352;48.708;9.290;2023-05-07T12:50:54;52.71;50.80;53.86;;
48148;Laerm;29352;48.708;9.290;2023-05-07T12:53:23;52.36;38.67;53.81;;
48148;Laerm;29352;48.708;9.290;2023-05-07T12:55:55;51.68;42.35;53.63;;
48148;Laerm;29352;48.708;9.290;2023-05-07T12:58:28;52.56;38.67;53.90;;
48148;Laerm;29352;48.708;9.290;2023-05-07T13:00:56;55.07;47.70;87.69;;
48148;Laerm;29352;48.708;9.290;2023-05-07T13:03:33;48.29;15.00;57.50;;
48148;Laerm;29352;48.708;9.290;2023-05-07T13:06:02;44.18;15.00;49.92;;
48148;Laerm;29352;48.708;9.290;2023-05-07T13:08:31;45.55;15.00;50.03;;
48148;Laerm;29352;48.708;9.290;2023-05-07T13:10:59;46.24;15.00;51.82;;
48148;Laerm;29352;48.708;9.290;2023-05-07T13:13:32;67.56;15.00;96.21;;
48148;Laerm;29352;48.708;9.290;2023-05-07T13:15:57;41.20;15.00;49.46;;
48148;Laerm;29352;48.708;9.290;2023-05-07T13:18:25;40.08;15.00;48.81;;
48148;Laerm;29352;48.708;9.290;2023-05-07T13:20:52;40.34;15.00;49.21;;
48148;Laerm;29352;48.708;9.290;2023-05-07T13:23:18;54.14;15.00;90.19;;
48148;Laerm;29352;48.708;9.290;2023-05-07T13:25:44;40.71;15.00;49.81;;
48148;Laerm;29352;48.708;9.290;2023-05-07T13:28:09;42.63;15.00;50.13;;
48148;Laerm;29352;48.708;9.290;2023-05-07T13:30:35;44.04;15.00;50.43;;
48148;Laerm;29352;48.708;9.290;2023-05-07T13:33:00;43.05;15.00;50.03;;
48148;Laerm;29352;48.708;9.290;2023-05-07T13:35:26;42.94;15.00;49.46;;
48148;Laerm;29352;48.708;9.290;2023-05-07T13:37:52;41.17;15.00;48.87;;
48148;Laerm;29352;48.708;9.290;2023-05-07T13:40:18;41.20;15.00;49.21;;
48148;Laerm;29352;48.708;9.290;2023-05-07T13:42:44;39.64;15.00;66.36;;
48148;Laerm;29352;48.708;9.290;2023-05-07T13:45:10;69.80;15.00;97.18;;
48148;Laerm;29352;48.708;9.290;2023-05-07T13:47:35;69.91;15.00;96.21;;
48148;Laerm;29352;48.708;9.290;2023-05-07T13:50:01;66.79;15.00;96.22;;
48148;Laerm;29352;48.708;9.290;2023-05-07T13:52:27;64.80;15.00;96.21;;
48148;Laerm;29352;48.708;9.290;2023-05-07T13:54:52;54.06;15.00;90.19;;
48148;Laerm;29352;48.708;9.290;2023-05-07T13:57:18;15.00;15.00;15.00;;
48148;Laerm;29352;48.708;9.290;2023-05-07T13:59:44;26.06;15.00;46.91;;
48148;Laerm;29352;48.708;9.290;2023-05-07T14:02:09;27.17;15.00;46.69;;
48148;Laerm;29352;48.708;9.290;2023-05-07T14:04:35;39.93;15.00;57.63;;
48148;Laerm;29352;48.708;9.290;2023-05-07T14:07:00;53.60;52.03;64.60;;